Portada
METAR-TAF:

METAR-TAF

Aeroports :

Luganville, Illa Espíritu Santo, Vanuatu

latitud: 15-31S, longitud: 167-13E, altitud: 41 m

Observació

L'informe es va fer fa 1 hora i 12 minuts, a les 02:00 UTC
Vent 7 kt del Sud/Sud-Est
Temperatura 30°C
Humitat 75%
Pressió 1004 hPa
Visibilitat 10 km o més
Núvols disperses a una alçada de 2000 ft

METAR: NVSS 160200Z 15007KT 9999 SCT020 30/25 Q1004

Hora: 14:12 (03:12 UTC)

Pronòstic

L'informe es va fer fa 4 hores i 52 minuts, a les 22:20 UTC
Pronòstic vàlid del 16 a les 00 UTC al 16 a les 24 UTC
Vent 5 kt del Sud-Oest
Visibilitat 10 km o més
Núvols disperses a una alçada de 2000 ft

TAF: NVSS 152220Z 1600/1624 23005KT 9999 SCT020

Observacions i pronòstics meteorològics de més de 4000 aeroports (METAR i TAF).

Les estacions disponibles són els punts grocs i vermells al mapa.

Posi el ratolí al punt desitjat per veure el nom de l'estació.

Feu clic per veure les observacions i els pronòstics meteorològics.

Per canviar el mapa: feu clic els botons verds amb una creu de color negre per apropar; al botó verd amb un guió per allunyar la imatge; o en les fletxes verdes per a mapes adjacents.


METAR-TAF: